Aeroporto :
LOGIN :

Iscrizione | Disclaimer

   EN    FR    IT 

 










Sommario :    VFR   VFR Marginale   IFR   IFR Intensivo   IFR Molto Intensivo
Visibilità : 
Base nubi : 
>= 8 km
>= 3000ft
5 / 8 km
1000 / 3000 ft
1500m / 5 km
500 / 1000 ft
800 / 1500m
200 / 500 ft
< 800m
< 200 ft
Simboli :   Temporali  Nebbia  Neve Forte  Precipitazioni Forti  Vento > 20 kt
SIGMETs :   Varie  Temporali  Ghiacco  Turbolenza  Onda orograficha  Ceneri Vulcaniche







- Altitudine del aeroporto : 464 ft
- Codice IATA : EVX
- Carte del aeroporto


LFOE - Evreux

ULTIMO METAR :
  • 210700Z AUTO 17002KT 0200 R22/0225N FG VV/// 01/01 Q1027 BECMG 1500 BR OVC003

METARs OBSOLETI :
  • 210630Z AUTO 19004KT 0200 R22/0225N FG VV/// 01/01 Q1026 BECMG 1500 BR OVC003
  • 210600Z AUTO 19001KT 0250 R22/0325N FG VV/// 00/00 Q1026 BECMG 1500 BR OVC003
  • 210530Z AUTO 18001KT 0250 R22/0350N FG VV/// 01/00 Q1026 BECMG 1500 BR OVC003
  • 210500Z AUTO 00000KT 0300 R22/0450U FG VV/// 01/01 Q1026
  • 210430Z AUTO 18004KT 0600 0500 R22/0800U FG SCT010 02/02 Q1026

TAF AMD TAF LFOE
Valido dal 21 a 04 ore il 22 a 03 ore UTC


210450Z 2104/2203 19004KT 0300 FG VV///
BECMG 2107/2109 1500 BR OVC003
BECMG 2110/2112 8000 NSW NSC
BECMG 2122/2124 2000 BR
Nessun NOTAM noto per questo aeroporto.



MetMap, La meteo Aeronautica in un colpo d'occhio ! - Copyright ORBIFLY Dicembre 2007 - Disclaimer

ORBIFLY MET'MAP TEAM :

Programmazione e sviluppo : Alexandra Zaïnal
Concezione e sviluppo : Baudouin d'Aumeries
Co-Programmazione e sviluppo : Marc-Olivier Méhu
Supporto tecnico e logistico : Manuel Goepfert
Aiuto per la traduzione : Arnaldo La Scala

Contatto : metmap@orbifly.com




FONTI E CREDITI :

   NOAA